Time,TemperatureF,DewpointF,PressureIn,WindDirection,WindDirectionDegrees,WindSpeedMPH,WindSpeedGustMPH,Humidity,HourlyPrecipIn,Conditions,Clouds,dailyrainin,SoftwareType,DateUTC
2013-03-24 00:00:00,52.2,10.0,26.40,ENE,69,16.8,16.8,18,0.00,,---,0.00,VWS V13.01,2013-03-24 05:00:00,
2013-03-24 00:05:00,52.2,10.0,26.40,East,101,17.9,17.9,18,0.00,,---,0.00,VWS V13.01,2013-03-24 05:05:00,
2013-03-24 00:10:00,48.9,8.5,26.40,ENE,73,11.0,11.0,19,0.00,,---,0.00,VWS V13.01,2013-03-24 05:10:00,
2013-03-24 00:15:00,47.3,7.1,26.40,NE,42,12.8,12.8,19,0.00,,---,0.00,VWS V13.01,2013-03-24 05:15:00,
2013-03-24 00:20:00,46.6,6.5,26.40,ENE,70,15.4,15.4,19,0.00,,---,0.00,VWS V13.01,2013-03-24 05:20:00,
2013-03-24 00:25:00,46.2,7.4,26.43,ENE,72,19.2,19.2,20,0.00,,---,0.00,VWS V13.01,2013-03-24 05:25:00,
2013-03-24 00:30:00,46.2,7.4,26.43,ENE,78,8.7,8.7,20,0.00,,---,0.00,VWS V13.01,2013-03-24 05:30:00,
2013-03-24 00:35:00,45.0,6.3,26.43,ENE,78,8.7,8.7,20,0.00,,---,0.00,VWS V13.01,2013-03-24 05:35:00,
2013-03-24 00:40:00,43.9,5.4,26.46,East,93,8.1,8.1,20,0.00,,---,0.00,VWS V13.01,2013-03-24 05:40:00,
2013-03-24 00:45:00,43.9,5.4,26.46,NE,49,3.1,3.1,20,0.00,,---,0.00,VWS V13.01,2013-03-24 05:45:00,
2013-03-24 00:50:00,43.0,4.7,26.46,NE,54,2.7,3.1,20,0.00,,---,0.00,VWS V13.01,2013-03-24 05:50:00,
2013-03-24 00:55:00,43.0,4.7,26.46,NE,54,2.7,2.7,20,0.00,,---,0.00,VWS V13.01,2013-03-24 05:55:00,
2013-03-24 01:00:00,42.3,5.1,26.46,ENE,59,2.7,2.7,21,0.00,,---,0.00,VWS V13.01,2013-03-24 06:00:00,
2013-03-24 01:05:00,41.7,4.7,26.46,ENE,66,0.0,0.0,21,0.00,,---,0.00,VWS V13.01,2013-03-24 06:05:00,
2013-03-24 01:10:00,41.0,4.1,26.46,ENE,66,0.0,0.0,21,0.00,,---,0.00,VWS V13.01,2013-03-24 06:10:00,
2013-03-24 01:15:00,40.8,3.9,26.46,NNE,31,3.1,3.1,21,0.00,,---,0.00,VWS V13.01,2013-03-24 06:15:00,
2013-03-24 01:20:00,40.6,3.8,26.46,NNE,31,3.1,3.1,21,0.00,,---,0.00,VWS V13.01,2013-03-24 06:20:00,
2013-03-24 01:25:00,40.1,3.3,26.46,NE,53,2.7,3.1,21,0.00,,---,0.00,VWS V13.01,2013-03-24 06:25:00,
2013-03-24 01:30:00,39.9,3.2,26.46,NE,53,2.7,2.7,21,0.00,,---,0.00,VWS V13.01,2013-03-24 06:30:00,
2013-03-24 01:35:00,39.4,2.7,26.46,NE,47,2.7,2.7,21,0.00,,---,0.00,VWS V13.01,2013-03-24 06:35:00,
2013-03-24 01:40:00,39.4,2.7,26.46,ENE,68,4.5,4.5,21,0.00,,---,0.00,VWS V13.01,2013-03-24 06:40:00,
2013-03-24 01:45:00,39.0,2.4,26.46,ENE,68,4.5,4.5,21,0.00,,---,0.00,VWS V13.01,2013-03-24 06:45:00,
2013-03-24 01:50:00,38.5,2.0,26.46,East,85,2.7,2.7,21,0.00,,---,0.00,VWS V13.01,2013-03-24 06:50:00,
2013-03-24 01:55:00,38.5,2.0,26.49,East,85,2.7,2.7,21,0.00,,---,0.00,VWS V13.01,2013-03-24 06:55:00,
2013-03-24 02:00:00,38.8,2.3,26.49,ENE,78,3.6,3.6,21,0.00,,---,0.00,VWS V13.01,2013-03-24 07:00:00,
2013-03-24 02:05:00,38.8,2.3,26.49,ENE,78,3.6,3.6,21,0.00,,---,0.00,VWS V13.01,2013-03-24 07:05:00,
2013-03-24 02:10:00,38.8,2.3,26.49,ENE,76,4.0,4.0,21,0.00,,---,0.00,VWS V13.01,2013-03-24 07:10:00,
2013-03-24 02:15:00,38.5,2.0,26.49,East,81,11.0,11.0,21,0.00,,---,0.00,VWS V13.01,2013-03-24 07:15:00,
2013-03-24 02:20:00,38.5,2.0,26.49,ENE,75,8.7,8.7,21,0.00,,---,0.00,VWS V13.01,2013-03-24 07:20:00,
2013-03-24 02:25:00,38.5,2.0,26.49,East,81,6.3,6.3,21,0.00,,---,0.00,VWS V13.01,2013-03-24 07:25:00,
2013-03-24 02:30:00,38.5,2.0,26.49,ENE,78,6.3,6.3,21,0.00,,---,0.00,VWS V13.01,2013-03-24 07:30:00,
2013-03-24 02:35:00,37.2,1.9,26.49,ENE,78,6.3,6.3,22,0.00,,---,0.00,VWS V13.01,2013-03-24 07:35:00,
2013-03-24 02:40:00,37.2,1.9,26.49,East,81,8.7,8.7,22,0.00,,---,0.00,VWS V13.01,2013-03-24 07:40:00,
2013-03-24 02:45:00,36.3,1.1,26.49,East,81,8.7,8.7,22,0.00,,---,0.00,VWS V13.01,2013-03-24 07:45:00,
2013-03-24 02:50:00,35.8,0.7,26.49,NE,37,5.8,5.8,22,0.00,,---,0.00,VWS V13.01,2013-03-24 07:50:00,
2013-03-24 02:55:00,35.8,0.7,26.49,ENE,71,2.7,2.7,22,0.00,,---,0.00,VWS V13.01,2013-03-24 07:55:00,
2013-03-24 03:00:00,34.7,-0.2,26.49,ENE,71,2.7,2.7,22,0.00,,---,0.00,VWS V13.01,2013-03-24 08:00:00,
2013-03-24 03:05:00,34.5,-0.4,26.49,NNE,16,2.7,2.7,22,0.00,,---,0.00,VWS V13.01,2013-03-24 08:05:00,
2013-03-24 03:10:00,34.3,-0.6,26.49,NNE,16,2.7,2.7,22,0.00,,---,0.00,VWS V13.01,2013-03-24 08:10:00,
2013-03-24 03:15:00,34.0,-0.9,26.49,North,357,2.7,2.7,22,0.00,,---,0.00,VWS V13.01,2013-03-24 08:15:00,
2013-03-24 03:20:00,33.8,-1.0,26.49,North,357,2.7,2.7,22,0.00,,---,0.00,VWS V13.01,2013-03-24 08:20:00,
2013-03-24 03:25:00,33.6,-0.2,26.49,North,357,5.8,5.8,23,0.00,,---,0.00,VWS V13.01,2013-03-24 08:25:00,
2013-03-24 03:30:00,33.6,-0.2,26.49,North,357,5.8,5.8,23,0.00,,---,0.00,VWS V13.01,2013-03-24 08:30:00,
2013-03-24 03:35:00,33.1,-0.7,26.49,NE,52,2.7,2.7,23,0.00,,---,0.00,VWS V13.01,2013-03-24 08:35:00,
2013-03-24 03:40:00,33.1,-0.7,26.49,NNE,21,3.6,3.6,23,0.00,,---,0.00,VWS V13.01,2013-03-24 08:40:00,
2013-03-24 03:45:00,32.5,-1.1,26.49,East,79,7.2,7.2,23,0.00,,---,0.00,VWS V13.01,2013-03-24 08:45:00,
2013-03-24 03:50:00,32.5,-1.1,26.49,NNE,31,4.0,4.0,23,0.00,,---,0.00,VWS V13.01,2013-03-24 08:50:00,
2013-03-24 03:55:00,32.5,-1.1,26.49,East,79,5.4,5.4,23,0.00,,---,0.00,VWS V13.01,2013-03-24 08:55:00,
2013-03-24 04:00:00,32.5,-1.1,26.49,NE,53,5.4,5.4,23,0.00,,---,0.00,VWS V13.01,2013-03-24 09:00:00,
2013-03-24 04:05:00,32.5,-1.1,26.49,East,81,5.8,5.8,23,0.00,,---,0.00,VWS V13.01,2013-03-24 09:05:00,
2013-03-24 04:10:00,32.5,-1.1,26.49,NE,56,4.0,4.0,23,0.00,,---,0.00,VWS V13.01,2013-03-24 09:10:00,
2013-03-24 04:15:00,32.5,-1.1,26.49,ENE,77,3.1,3.1,23,0.00,,---,0.00,VWS V13.01,2013-03-24 09:15:00,
2013-03-24 04:20:00,32.5,-1.1,26.49,East,79,8.1,8.1,23,0.00,,---,0.00,VWS V13.01,2013-03-24 09:20:00,
2013-03-24 04:25:00,32.5,-1.1,26.49,East,79,8.1,8.1,23,0.00,,---,0.00,VWS V13.01,2013-03-24 09:25:00,
2013-03-24 04:30:00,32.5,-1.1,26.49,ENE,68,6.3,6.3,23,0.00,,---,0.00,VWS V13.01,2013-03-24 09:30:00,
2013-03-24 04:35:00,32.5,-1.1,26.49,ENE,68,6.3,6.3,23,0.00,,---,0.00,VWS V13.01,2013-03-24 09:35:00,
2013-03-24 04:40:00,32.5,-1.1,26.49,ENE,61,5.8,5.8,23,0.00,,---,0.00,VWS V13.01,2013-03-24 09:40:00,
2013-03-24 04:45:00,32.5,-1.1,26.49,ENE,61,5.8,5.8,23,0.00,,---,0.00,VWS V13.01,2013-03-24 09:45:00,
2013-03-24 04:50:00,32.5,-1.1,26.49,ENE,70,3.6,3.6,23,0.00,,---,0.00,VWS V13.01,2013-03-24 09:50:00,
2013-03-24 04:55:00,32.5,-1.1,26.49,ENE,70,3.6,3.6,23,0.00,,---,0.00,VWS V13.01,2013-03-24 09:55:00,
2013-03-24 05:00:00,32.5,-1.1,26.49,ENE,70,3.6,3.6,23,0.00,,---,0.00,VWS V13.01,2013-03-24 10:00:00,
2013-03-24 05:05:00,32.5,-1.1,26.49,ENE,74,5.4,5.4,23,0.00,,---,0.00,VWS V13.01,2013-03-24 10:05:00,
2013-03-24 05:10:00,32.5,-1.1,26.49,ENE,74,5.4,5.4,23,0.00,,---,0.00,VWS V13.01,2013-03-24 10:10:00,
2013-03-24 05:15:00,32.5,-1.1,26.49,NE,53,2.2,2.2,23,0.00,,---,0.00,VWS V13.01,2013-03-24 10:15:00,
2013-03-24 05:20:00,32.5,-1.1,26.49,NE,53,2.2,2.2,23,0.00,,---,0.00,VWS V13.01,2013-03-24 10:20:00,
2013-03-24 05:25:00,32.5,-1.1,26.49,NE,43,5.4,5.4,23,0.00,,---,0.00,VWS V13.01,2013-03-24 10:25:00,
2013-03-24 05:30:00,32.5,-1.1,26.49,East,82,6.7,6.7,23,0.00,,---,0.00,VWS V13.01,2013-03-24 10:30:00,
2013-03-24 05:35:00,32.5,-1.1,26.49,East,88,7.6,7.6,23,0.00,,---,0.00,VWS V13.01,2013-03-24 10:35:00,
2013-03-24 05:40:00,32.5,-1.1,26.49,East,100,3.6,3.6,23,0.00,,---,0.00,VWS V13.01,2013-03-24 10:40:00,
2013-03-24 05:45:00,32.5,-1.1,26.49,East,100,3.6,3.6,23,0.00,,---,0.00,VWS V13.01,2013-03-24 10:45:00,
2013-03-24 05:50:00,32.5,-1.1,26.49,East,87,5.4,5.4,23,0.00,,---,0.00,VWS V13.01,2013-03-24 10:50:00,
2013-03-24 05:55:00,32.5,-1.1,26.49,East,87,5.4,5.4,23,0.00,,---,0.00,VWS V13.01,2013-03-24 10:55:00,
2013-03-24 06:00:00,32.5,-1.1,26.49,East,100,3.1,3.1,23,0.00,,---,0.00,VWS V13.01,2013-03-24 11:00:00,
2013-03-24 06:05:00,32.5,-1.1,26.49,East,82,3.6,3.6,23,0.00,,---,0.00,VWS V13.01,2013-03-24 11:05:00,
2013-03-24 06:10:00,32.5,-1.1,26.49,East,85,3.1,3.1,23,0.00,,---,0.00,VWS V13.01,2013-03-24 11:10:00,
2013-03-24 06:15:00,32.5,-1.1,26.49,East,88,4.9,4.9,23,0.00,,---,0.00,VWS V13.01,2013-03-24 11:15:00,
2013-03-24 06:20:00,32.5,-1.1,26.49,East,99,3.6,3.6,23,0.00,,---,0.00,VWS V13.01,2013-03-24 11:20:00,
2013-03-24 06:25:00,32.5,-1.1,26.49,East,93,4.9,4.9,23,0.00,,---,0.00,VWS V13.01,2013-03-24 11:25:00,
2013-03-24 06:30:00,32.5,-1.1,26.52,ESE,104,2.2,4.9,23,0.00,,---,0.00,VWS V13.01,2013-03-24 11:30:00,
2013-03-24 06:35:00,32.5,-1.1,26.52,ESE,104,2.2,2.2,23,0.00,,---,0.00,VWS V13.01,2013-03-24 11:35:00,
2013-03-24 06:40:00,32.5,-1.1,26.52,East,98,3.6,3.6,23,0.00,,---,0.00,VWS V13.01,2013-03-24 11:40:00,
2013-03-24 06:45:00,32.5,-1.1,26.52,ESE,104,5.4,5.4,23,0.00,,---,0.00,VWS V13.01,2013-03-24 11:45:00,
2013-03-24 06:50:00,32.5,-1.1,26.52,East,100,3.6,3.6,23,0.00,,---,0.00,VWS V13.01,2013-03-24 11:50:00,
2013-03-24 06:55:00,32.5,-1.1,26.52,East,101,4.0,4.0,23,0.00,,---,0.00,VWS V13.01,2013-03-24 11:55:00,
2013-03-24 07:00:00,32.5,-1.1,26.52,ESE,105,3.6,3.6,23,0.00,,---,0.00,VWS V13.01,2013-03-24 12:00:00,
2013-03-24 07:05:00,32.5,-1.1,26.52,East,81,4.0,4.5,23,0.00,,---,0.00,VWS V13.01,2013-03-24 12:05:00,
2013-03-24 07:12:00,32.5,-1.1,26.52,East,81,4.0,4.0,23,0.00,,---,0.00,VWS V13.01,2013-03-24 12:12:00,
2013-03-24 07:17:00,32.5,-1.1,26.52,ENE,78,0.0,0.0,23,0.00,,---,0.00,VWS V13.01,2013-03-24 12:17:00,
2013-03-24 07:22:00,32.5,-1.1,26.52,ENE,78,0.0,0.0,23,0.00,,---,0.00,VWS V13.01,2013-03-24 12:22:00,
2013-03-24 07:27:00,32.5,-1.1,26.52,ENE,78,0.0,0.0,23,0.00,,---,0.00,VWS V13.01,2013-03-24 12:27:00,
2013-03-24 07:32:00,32.5,-1.1,26.52,ENE,78,0.0,0.0,23,0.00,,---,0.00,VWS V13.01,2013-03-24 12:32:00,
2013-03-24 07:37:00,23.4,-1.5,26.52,ENE,78,0.0,0.0,33,0.00,,---,0.00,VWS V13.01,2013-03-24 12:37:00,
2013-03-24 07:42:00,23.4,-1.5,26.55,ENE,78,0.0,0.0,33,0.00,,---,0.00,VWS V13.01,2013-03-24 12:42:00,
2013-03-24 07:47:00,23.4,-1.5,26.55,ENE,78,0.0,0.0,33,0.00,,---,0.00,VWS V13.01,2013-03-24 12:47:00,
2013-03-24 07:52:00,23.4,-1.5,26.55,ENE,78,0.0,0.0,33,0.00,,---,0.00,VWS V13.01,2013-03-24 12:52:00,
2013-03-24 07:57:00,23.4,-1.5,26.55,ENE,78,0.0,0.0,33,0.00,,---,0.00,VWS V13.01,2013-03-24 12:57:00,
2013-03-24 08:02:00,23.4,-1.5,26.55,ENE,78,0.0,0.0,33,0.00,,---,0.00,VWS V13.01,2013-03-24 13:02:00,
2013-03-24 08:07:00,23.4,-1.5,26.55,ENE,78,0.0,0.0,33,0.00,,---,0.00,VWS V13.01,2013-03-24 13:07:00,
2013-03-24 08:12:00,23.4,-1.5,26.55,ENE,78,0.0,0.0,33,0.00,,---,0.00,VWS V13.01,2013-03-24 13:12:00,
2013-03-24 08:17:00,23.4,-1.5,26.55,ENE,78,0.0,0.0,33,0.00,,---,0.00,VWS V13.01,2013-03-24 13:17:00,
2013-03-24 08:22:00,23.4,-1.5,26.55,ENE,78,0.0,0.0,33,0.00,,---,0.00,VWS V13.01,2013-03-24 13:22:00,
2013-03-24 08:28:00,23.4,-1.5,26.52,ENE,78,0.0,0.0,33,0.00,,---,0.00,VWS V13.01,2013-03-24 13:28:00,
2013-03-24 08:33:00,26.1,0.2,26.52,East,87,0.0,0.0,32,0.00,,---,0.00,VWS V13.01,2013-03-24 13:33:00,
2013-03-24 08:38:00,26.1,0.2,26.52,East,87,0.0,0.0,32,0.00,,---,0.00,VWS V13.01,2013-03-24 13:38:00,
2013-03-24 08:43:00,26.1,0.2,26.52,SSE,168,4.0,4.0,32,0.00,,---,0.00,VWS V13.01,2013-03-24 13:43:00,
2013-03-24 08:48:00,26.1,0.2,26.52,SSE,168,4.0,4.0,32,0.00,,---,0.00,VWS V13.01,2013-03-24 13:48:00,
2013-03-24 08:53:00,26.1,0.2,26.55,SE,135,2.7,3.1,32,0.00,,---,0.00,VWS V13.01,2013-03-24 13:53:00,
2013-03-24 08:58:00,26.1,0.2,26.55,SE,133,3.1,3.1,32,0.00,,---,0.00,VWS V13.01,2013-03-24 13:58:00,
2013-03-24 09:03:00,26.1,0.2,26.55,SE,133,3.1,3.1,32,0.00,,---,0.00,VWS V13.01,2013-03-24 14:03:00,
2013-03-24 09:08:00,26.1,0.2,26.55,SSE,168,2.7,2.7,32,0.00,,---,0.00,VWS V13.01,2013-03-24 14:08:00,
2013-03-24 09:13:00,26.1,0.2,26.55,SSE,168,2.7,2.7,32,0.00,,---,0.00,VWS V13.01,2013-03-24 14:13:00,
2013-03-24 09:18:00,26.1,0.2,26.58,SSE,161,3.6,3.6,32,0.00,,---,0.00,VWS V13.01,2013-03-24 14:18:00,
2013-03-24 09:23:00,26.1,0.2,26.58,SSE,161,3.6,3.6,32,0.00,,---,0.00,VWS V13.01,2013-03-24 14:23:00,
2013-03-24 09:28:00,26.1,0.2,26.58,SSE,166,5.4,5.4,32,0.00,,---,0.00,VWS V13.01,2013-03-24 14:28:00,
2013-03-24 09:33:00,32.7,0.8,26.58,SE,146,5.8,5.8,25,0.00,,---,0.00,VWS V13.01,2013-03-24 14:33:00,
2013-03-24 09:38:00,32.7,0.8,26.58,SSE,155,5.8,5.8,25,0.00,,---,0.00,VWS V13.01,2013-03-24 14:38:00,
2013-03-24 09:43:00,32.7,0.8,26.58,SSE,164,6.3,6.3,25,0.00,,---,0.00,VWS V13.01,2013-03-24 14:43:00,
2013-03-24 09:48:00,32.7,0.8,26.58,SE,140,5.8,5.8,25,0.00,,---,0.00,VWS V13.01,2013-03-24 14:48:00,
2013-03-24 09:53:00,32.7,0.8,26.58,SSE,163,7.2,7.2,25,0.00,,---,0.00,VWS V13.01,2013-03-24 14:53:00,
2013-03-24 09:58:00,32.7,0.8,26.58,SE,127,3.6,3.6,25,0.00,,---,0.00,VWS V13.01,2013-03-24 14:58:00,
2013-03-24 10:03:00,32.7,0.8,26.58,SE,127,3.6,3.6,25,0.00,,---,0.00,VWS V13.01,2013-03-24 15:03:00,
2013-03-24 10:08:00,32.7,0.8,26.58,South,175,4.5,4.5,25,0.00,,---,0.00,VWS V13.01,2013-03-24 15:08:00,
2013-03-24 10:13:00,32.7,0.8,26.58,SSE,162,4.9,4.9,25,0.00,,---,0.00,VWS V13.01,2013-03-24 15:13:00,
2013-03-24 10:18:00,32.7,0.8,26.58,SSE,162,4.9,4.9,25,0.00,,---,0.00,VWS V13.01,2013-03-24 15:18:00,
2013-03-24 10:23:00,32.7,0.8,26.58,SE,124,8.7,8.7,25,0.00,,---,0.00,VWS V13.01,2013-03-24 15:23:00,
2013-03-24 10:28:00,37.6,1.2,26.58,SE,124,8.7,8.7,21,0.00,,---,0.00,VWS V13.01,2013-03-24 15:28:00,
2013-03-24 10:33:00,37.6,1.2,26.58,SSE,157,9.2,9.2,21,0.00,,---,0.00,VWS V13.01,2013-03-24 15:33:00,
2013-03-24 10:38:00,37.6,1.2,26.58,SSE,157,9.2,9.2,21,0.00,,---,0.00,VWS V13.01,2013-03-24 15:38:00,
2013-03-24 10:43:00,37.6,1.2,26.58,SE,132,5.8,5.8,21,0.00,,---,0.00,VWS V13.01,2013-03-24 15:43:00,
2013-03-24 10:48:00,37.6,1.2,26.58,SE,132,5.8,5.8,21,0.00,,---,0.00,VWS V13.01,2013-03-24 15:48:00,
2013-03-24 10:54:00,37.6,1.2,26.58,South,189,5.8,5.8,21,0.00,,---,0.00,VWS V13.01,2013-03-24 15:54:00,
2013-03-24 10:59:00,37.6,1.2,26.58,South,189,5.8,5.8,21,0.00,,---,0.00,VWS V13.01,2013-03-24 15:59:00,
2013-03-24 11:04:00,37.6,1.2,26.58,South,189,5.8,5.8,21,0.00,,---,0.00,VWS V13.01,2013-03-24 16:04:00,
2013-03-24 11:09:00,37.6,1.2,26.58,ESE,113,8.7,8.7,21,0.00,,---,0.00,VWS V13.01,2013-03-24 16:09:00,
2013-03-24 11:14:00,37.6,1.2,26.58,ESE,113,8.7,8.7,21,0.00,,---,0.00,VWS V13.01,2013-03-24 16:14:00,
2013-03-24 11:19:00,37.6,1.2,26.58,SE,134,6.7,6.7,21,0.00,,---,0.00,VWS V13.01,2013-03-24 16:19:00,
2013-03-24 11:24:00,37.6,1.2,26.58,SE,134,6.7,6.7,21,0.00,,---,0.00,VWS V13.01,2013-03-24 16:24:00,
2013-03-24 11:29:00,37.6,1.2,26.58,SE,131,8.1,8.1,21,0.00,,---,0.00,VWS V13.01,2013-03-24 16:29:00,
2013-03-24 11:34:00,37.6,1.2,26.58,ESE,121,5.8,5.8,21,0.00,,---,0.00,VWS V13.01,2013-03-24 16:34:00,
2013-03-24 11:39:00,37.6,1.2,26.58,SE,141,7.6,7.6,21,0.00,,---,0.00,VWS V13.01,2013-03-24 16:39:00,
2013-03-24 11:44:00,37.6,1.2,26.58,South,171,8.3,8.3,21,0.00,,---,0.00,VWS V13.01,2013-03-24 16:44:00,
2013-03-24 11:49:00,37.6,1.2,26.58,South,171,8.3,8.3,21,0.00,,---,0.00,VWS V13.01,2013-03-24 16:49:00,
2013-03-24 11:54:00,37.6,1.2,26.58,SE,142,8.1,8.1,21,0.00,,---,0.00,VWS V13.01,2013-03-24 16:54:00,
2013-03-24 11:59:00,37.6,1.2,26.55,East,90,6.3,8.1,21,0.00,,---,0.00,VWS V13.01,2013-03-24 16:59:00,
2013-03-24 12:04:00,37.6,1.2,26.55,East,90,6.3,6.3,21,0.00,,---,0.00,VWS V13.01,2013-03-24 17:04:00,
2013-03-24 12:09:00,37.6,1.2,26.55,ESE,117,4.9,4.9,21,0.00,,---,0.00,VWS V13.01,2013-03-24 17:09:00,
2013-03-24 12:14:00,37.6,1.2,26.55,ESE,118,6.3,6.3,21,0.00,,---,0.00,VWS V13.01,2013-03-24 17:14:00,
2013-03-24 12:19:00,37.6,1.2,26.55,ESE,105,5.8,5.8,21,0.00,,---,0.00,VWS V13.01,2013-03-24 17:19:00,
2013-03-24 12:24:00,46.8,6.7,26.55,South,171,5.8,5.8,19,0.00,,---,0.00,VWS V13.01,2013-03-24 17:24:00,
2013-03-24 12:29:00,46.8,6.7,26.55,SE,140,7.6,7.6,19,0.00,,---,0.00,VWS V13.01,2013-03-24 17:29:00,
2013-03-24 12:34:00,46.9,6.8,26.55,SE,140,8.3,8.3,19,0.00,,---,0.00,VWS V13.01,2013-03-24 17:34:00,
2013-03-24 12:39:00,46.9,6.8,26.55,South,171,7.6,7.6,19,0.00,,---,0.00,VWS V13.01,2013-03-24 17:39:00,
2013-03-24 12:44:00,46.9,6.8,26.55,SSW,198,5.4,5.4,19,0.00,,---,0.00,VWS V13.01,2013-03-24 17:44:00,
2013-03-24 12:49:00,46.9,6.8,26.55,SSE,157,6.3,6.3,19,0.00,,---,0.00,VWS V13.01,2013-03-24 17:49:00,
2013-03-24 12:54:00,46.9,6.8,26.55,South,177,6.3,6.3,19,0.00,,---,0.00,VWS V13.01,2013-03-24 17:54:00,
2013-03-24 12:59:00,46.9,6.8,26.55,SSE,154,5.8,8.1,19,0.00,,---,0.00,VWS V13.01,2013-03-24 17:59:00,
2013-03-24 13:04:00,46.9,6.8,26.55,SSW,195,5.8,5.8,19,0.00,,---,0.00,VWS V13.01,2013-03-24 18:04:00,
2013-03-24 13:09:00,46.9,6.8,26.52,SSE,147,5.4,5.4,19,0.00,,---,0.00,VWS V13.01,2013-03-24 18:09:00,
2013-03-24 13:14:00,46.9,6.8,26.52,SE,144,8.3,8.3,19,0.00,,---,0.00,VWS V13.01,2013-03-24 18:14:00,
2013-03-24 13:19:00,48.7,8.3,26.52,SSE,159,5.4,5.4,19,0.00,,---,0.00,VWS V13.01,2013-03-24 18:19:00,
2013-03-24 13:24:00,47.8,7.6,26.52,SSE,165,8.1,8.1,19,0.00,,---,0.00,VWS V13.01,2013-03-24 18:24:00,
2013-03-24 13:29:00,47.8,7.6,26.52,ESE,115,11.0,11.0,19,0.00,,---,0.00,VWS V13.01,2013-03-24 18:29:00,
2013-03-24 13:34:00,47.8,7.6,26.52,SSW,196,4.0,4.0,19,0.00,,---,0.00,VWS V13.01,2013-03-24 18:34:00,
2013-03-24 13:39:00,47.8,7.6,26.52,SSE,163,6.3,6.3,19,0.00,,---,0.00,VWS V13.01,2013-03-24 18:39:00,
2013-03-24 13:44:00,47.8,7.6,26.52,South,182,8.7,8.7,19,0.00,,---,0.00,VWS V13.01,2013-03-24 18:44:00,
2013-03-24 13:49:00,49.3,8.8,26.52,South,174,8.1,8.1,19,0.00,,---,0.00,VWS V13.01,2013-03-24 18:49:00,
2013-03-24 13:54:00,49.6,9.1,26.52,SE,125,7.6,7.6,19,0.00,,---,0.00,VWS V13.01,2013-03-24 18:54:00,
2013-03-24 13:59:00,49.6,9.1,26.52,SW,219,2.7,2.7,19,0.00,,---,0.00,VWS V13.01,2013-03-24 18:59:00,
2013-03-24 14:04:00,49.6,9.1,26.52,SE,144,8.3,8.3,19,0.00,,---,0.00,VWS V13.01,2013-03-24 19:04:00,
2013-03-24 14:09:00,49.6,9.1,26.52,SE,133,6.3,6.3,19,0.00,,---,0.00,VWS V13.01,2013-03-24 19:09:00,
2013-03-24 14:14:00,51.4,10.6,26.52,South,184,4.5,4.5,19,0.00,,---,0.00,VWS V13.01,2013-03-24 19:14:00,
2013-03-24 14:19:00,51.4,10.6,26.49,South,181,7.6,7.6,19,0.00,,---,0.00,VWS V13.01,2013-03-24 19:19:00,
2013-03-24 14:24:00,53.2,10.9,26.49,SE,144,6.3,6.3,18,0.00,,---,0.00,VWS V13.01,2013-03-24 19:24:00,
2013-03-24 14:29:00,53.2,10.9,26.49,SE,144,5.4,5.4,18,0.00,,---,0.00,VWS V13.01,2013-03-24 19:29:00,
2013-03-24 14:34:00,50.9,10.1,26.49,SSE,163,8.1,8.1,19,0.00,,---,0.00,VWS V13.01,2013-03-24 19:34:00,
2013-03-24 14:39:00,50.9,10.1,26.49,SSW,195,3.6,3.6,19,0.00,,---,0.00,VWS V13.01,2013-03-24 19:39:00,
2013-03-24 14:44:00,50.9,10.1,26.49,SSE,165,5.4,5.4,19,0.00,,---,0.00,VWS V13.01,2013-03-24 19:44:00,
2013-03-24 14:49:00,50.9,10.1,26.49,SE,139,3.1,3.1,19,0.00,,---,0.00,VWS V13.01,2013-03-24 19:49:00,
2013-03-24 14:54:00,50.9,10.1,26.49,South,187,8.7,8.7,19,0.00,,---,0.00,VWS V13.01,2013-03-24 19:54:00,
2013-03-24 14:59:00,54.3,11.7,26.49,SSW,206,3.6,3.6,18,0.00,,---,0.00,VWS V13.01,2013-03-24 19:59:00,
2013-03-24 15:04:00,54.3,11.7,26.46,SE,143,5.4,5.4,18,0.00,,---,0.00,VWS V13.01,2013-03-24 20:04:00,
2013-03-24 15:09:00,53.1,10.7,26.46,SSE,150,10.1,10.1,18,0.00,,---,0.00,VWS V13.01,2013-03-24 20:09:00,
2013-03-24 15:14:00,53.1,10.7,26.46,SSE,150,10.1,10.1,18,0.00,,---,0.00,VWS V13.01,2013-03-24 20:14:00,
2013-03-24 15:19:00,54.5,11.9,26.46,South,180,3.1,3.1,18,0.00,,---,0.00,VWS V13.01,2013-03-24 20:19:00,
2013-03-24 15:24:00,54.5,11.9,26.46,SW,231,8.1,8.1,18,0.00,,---,0.00,VWS V13.01,2013-03-24 20:24:00,
2013-03-24 15:29:00,54.5,11.9,26.46,SE,140,6.3,6.3,18,0.00,,---,0.00,VWS V13.01,2013-03-24 20:29:00,
2013-03-24 15:34:00,54.5,11.9,26.46,SE,140,6.3,6.3,18,0.00,,---,0.00,VWS V13.01,2013-03-24 20:34:00,
2013-03-24 15:39:00,54.5,11.9,26.46,SSW,199,5.4,5.4,18,0.00,,---,0.00,VWS V13.01,2013-03-24 20:39:00,
2013-03-24 15:44:00,54.1,11.6,26.43,SSE,161,5.8,5.8,18,0.00,,---,0.00,VWS V13.01,2013-03-24 20:44:00,
2013-03-24 15:49:00,54.1,11.6,26.43,South,170,7.6,7.6,18,0.00,,---,0.00,VWS V13.01,2013-03-24 20:49:00,
2013-03-24 15:54:00,54.1,11.6,26.43,SE,139,10.5,10.5,18,0.00,,---,0.00,VWS V13.01,2013-03-24 20:54:00,
2013-03-24 15:59:00,54.1,11.6,26.43,SE,129,8.1,8.1,18,0.00,,---,0.00,VWS V13.01,2013-03-24 20:59:00,
2013-03-24 16:04:00,54.1,11.6,26.43,South,172,6.3,6.3,18,0.00,,---,0.00,VWS V13.01,2013-03-24 21:04:00,
2013-03-24 16:09:00,55.6,11.5,26.43,East,95,5.8,5.8,17,0.00,,---,0.00,VWS V13.01,2013-03-24 21:09:00,
2013-03-24 16:14:00,55.2,12.5,26.43,South,191,8.3,8.3,18,0.00,,---,0.00,VWS V13.01,2013-03-24 21:14:00,
2013-03-24 16:19:00,55.2,12.5,26.43,SSE,162,10.5,10.5,18,0.00,,---,0.00,VWS V13.01,2013-03-24 21:19:00,
2013-03-24 16:24:00,54.3,11.7,26.43,SSE,165,7.6,10.5,18,0.00,,---,0.00,VWS V13.01,2013-03-24 21:24:00,
2013-03-24 16:29:00,54.3,11.7,26.40,South,172,3.1,3.1,18,0.00,,---,0.00,VWS V13.01,2013-03-24 21:29:00,
2013-03-24 16:34:00,54.3,11.7,26.40,ESE,123,5.4,5.4,18,0.00,,---,0.00,VWS V13.01,2013-03-24 21:34:00,
2013-03-24 16:39:00,54.3,11.7,26.40,SE,137,6.3,6.3,18,0.00,,---,0.00,VWS V13.01,2013-03-24 21:39:00,
2013-03-24 16:44:00,54.3,11.7,26.40,SSE,158,4.9,4.9,18,0.00,,---,0.00,VWS V13.01,2013-03-24 21:44:00,
2013-03-24 16:49:00,55.0,12.3,26.43,SSE,151,8.3,8.3,18,0.00,,---,0.00,VWS V13.01,2013-03-24 21:49:00,
2013-03-24 16:54:00,54.5,11.9,26.43,ESE,103,6.3,6.3,18,0.00,,---,0.00,VWS V13.01,2013-03-24 21:54:00,
2013-03-24 16:59:00,54.5,11.9,26.40,SSE,151,8.1,8.1,18,0.00,,---,0.00,VWS V13.01,2013-03-24 21:59:00,
2013-03-24 17:04:00,54.5,11.9,26.40,SE,134,6.3,6.3,18,0.00,,---,0.00,VWS V13.01,2013-03-24 22:04:00,
2013-03-24 17:09:00,55.2,12.5,26.40,South,186,5.4,5.8,18,0.00,,---,0.00,VWS V13.01,2013-03-24 22:09:00,
2013-03-24 17:14:00,55.4,11.3,26.40,ESE,107,6.3,6.3,17,0.00,,---,0.00,VWS V13.01,2013-03-24 22:14:00,
2013-03-24 17:19:00,55.4,11.3,26.40,SE,137,5.8,5.8,17,0.00,,---,0.00,VWS V13.01,2013-03-24 22:19:00,
2013-03-24 17:24:00,55.4,11.3,26.40,SE,135,7.6,7.6,17,0.00,,---,0.00,VWS V13.01,2013-03-24 22:24:00,
2013-03-24 17:29:00,56.3,12.1,26.40,ESE,110,5.4,5.4,17,0.00,,---,0.00,VWS V13.01,2013-03-24 22:29:00,
2013-03-24 17:34:00,56.3,12.1,26.40,SSW,195,5.4,5.4,17,0.00,,---,0.00,VWS V13.01,2013-03-24 22:34:00,
2013-03-24 17:39:00,56.7,12.4,26.40,SSE,148,5.8,5.8,17,0.00,,---,0.00,VWS V13.01,2013-03-24 22:39:00,
2013-03-24 17:44:00,56.7,12.4,26.40,SSE,154,5.4,5.4,17,0.00,,---,0.00,VWS V13.01,2013-03-24 22:44:00,
2013-03-24 17:49:00,56.7,12.4,26.40,SW,220,5.4,5.4,17,0.00,,---,0.00,VWS V13.01,2013-03-24 22:49:00,
2013-03-24 17:54:00,56.7,12.4,26.40,SSE,168,6.3,6.3,17,0.00,,---,0.00,VWS V13.01,2013-03-24 22:54:00,
2013-03-24 17:59:00,56.7,12.4,26.40,SSW,196,3.1,3.1,17,0.00,,---,0.00,VWS V13.01,2013-03-24 22:59:00,
2013-03-24 18:05:00,56.3,12.1,26.40,SSE,159,8.3,8.3,17,0.00,,---,0.00,VWS V13.01,2013-03-24 23:05:00,
2013-03-24 18:10:00,56.3,12.1,26.40,South,169,7.6,7.6,17,0.00,,---,0.00,VWS V13.01,2013-03-24 23:10:00,
2013-03-24 18:15:00,56.1,11.9,26.37,SSW,207,8.1,8.1,17,0.00,,---,0.00,VWS V13.01,2013-03-24 23:15:00,
2013-03-24 18:20:00,56.1,11.9,26.37,SE,125,6.3,6.3,17,0.00,,---,0.00,VWS V13.01,2013-03-24 23:20:00,
2013-03-24 18:25:00,56.1,11.9,26.37,SSW,192,3.6,5.4,17,0.00,,---,0.00,VWS V13.01,2013-03-24 23:25:00,
2013-03-24 18:30:00,56.1,11.9,26.37,South,173,4.9,4.9,17,0.00,,---,0.00,VWS V13.01,2013-03-24 23:30:00,
2013-03-24 18:35:00,56.1,11.9,26.37,South,169,6.3,6.3,17,0.00,,---,0.00,VWS V13.01,2013-03-24 23:35:00,
2013-03-24 18:40:00,56.1,11.9,26.37,SSE,148,5.8,5.8,17,0.00,,---,0.00,VWS V13.01,2013-03-24 23:40:00,
2013-03-24 18:45:00,55.0,12.3,26.37,SE,135,4.9,6.3,18,0.00,,---,0.00,VWS V13.01,2013-03-24 23:45:00,
2013-03-24 18:50:00,55.0,12.3,26.37,ESE,117,4.0,4.0,18,0.00,,---,0.00,VWS V13.01,2013-03-24 23:50:00,
2013-03-24 18:55:00,55.0,12.3,26.37,ESE,121,5.8,8.7,18,0.00,,---,0.00,VWS V13.01,2013-03-24 23:55:00,
2013-03-24 19:00:00,53.2,10.9,26.37,ESE,117,4.0,5.8,18,0.00,,---,0.00,VWS V13.01,2013-03-25 00:00:00,
2013-03-24 19:05:00,53.2,10.9,26.37,SE,142,7.6,7.6,18,0.00,,---,0.00,VWS V13.01,2013-03-25 00:05:00,
2013-03-24 19:10:00,52.2,10.0,26.37,SE,146,5.4,5.4,18,0.00,,---,0.00,VWS V13.01,2013-03-25 00:10:00,
2013-03-24 19:15:00,52.2,10.0,26.40,SE,136,8.7,8.7,18,0.00,,---,0.00,VWS V13.01,2013-03-25 00:15:00,
2013-03-24 19:20:00,51.6,10.7,26.40,SE,136,8.7,8.7,19,0.00,,---,0.00,VWS V13.01,2013-03-25 00:20:00,
2013-03-24 19:25:00,51.1,10.3,26.40,SE,136,8.7,8.7,19,0.00,,---,0.00,VWS V13.01,2013-03-25 00:25:00,
2013-03-24 19:30:00,50.9,10.1,26.40,SE,136,8.7,8.7,19,0.00,,---,0.00,VWS V13.01,2013-03-25 00:30:00,
2013-03-24 19:35:00,50.5,9.8,26.40,SE,136,8.7,8.7,19,0.00,,---,0.00,VWS V13.01,2013-03-25 00:35:00,
2013-03-24 19:40:00,50.0,9.4,26.40,SE,136,8.7,8.7,19,0.00,,---,0.00,VWS V13.01,2013-03-25 00:40:00,
2013-03-24 19:45:00,49.8,9.2,26.40,SE,136,8.7,8.7,19,0.00,,---,0.00,VWS V13.01,2013-03-25 00:45:00,
2013-03-24 19:50:00,49.3,8.8,26.40,SE,136,8.7,8.7,19,0.00,,---,0.00,VWS V13.01,2013-03-25 00:50:00,
2013-03-24 19:55:00,49.1,8.6,26.40,SE,136,8.7,8.7,19,0.00,,---,0.00,VWS V13.01,2013-03-25 00:55:00,
2013-03-24 20:00:00,48.2,7.9,26.40,SE,136,8.7,8.7,19,0.00,,---,0.00,VWS V13.01,2013-03-25 01:00:00,
2013-03-24 20:05:00,47.8,7.6,26.40,SE,136,8.7,8.7,19,0.00,,---,0.00,VWS V13.01,2013-03-25 01:05:00,
2013-03-24 20:10:00,47.3,7.1,26.40,SE,136,8.7,8.7,19,0.00,,---,0.00,VWS V13.01,2013-03-25 01:10:00,
2013-03-24 20:15:00,47.3,7.1,26.40,SE,136,8.7,8.7,19,0.00,,---,0.00,VWS V13.01,2013-03-25 01:15:00,
2013-03-24 20:20:00,46.8,6.7,26.40,SE,136,8.7,8.7,19,0.00,,---,0.00,VWS V13.01,2013-03-25 01:20:00,
2013-03-24 20:25:00,46.0,7.2,26.40,SE,136,8.7,8.7,20,0.00,,---,0.00,VWS V13.01,2013-03-25 01:25:00,
2013-03-24 20:30:00,46.0,7.2,26.40,SE,136,8.7,8.7,20,0.00,,---,0.00,VWS V13.01,2013-03-25 01:30:00,
2013-03-24 20:35:00,45.3,6.6,26.40,SE,136,8.7,8.7,20,0.00,,---,0.00,VWS V13.01,2013-03-25 01:35:00,
2013-03-24 20:40:00,45.1,6.5,26.40,SE,136,8.7,8.7,20,0.00,,---,0.00,VWS V13.01,2013-03-25 01:40:00,
2013-03-24 20:45:00,45.1,6.5,26.40,SE,136,8.7,8.7,20,0.00,,---,0.00,VWS V13.01,2013-03-25 01:45:00,
2013-03-24 20:50:00,44.2,5.7,26.40,SE,136,8.7,8.7,20,0.00,,---,0.00,VWS V13.01,2013-03-25 01:50:00,
2013-03-24 20:55:00,44.2,5.7,26.40,SE,136,8.7,8.7,20,0.00,,---,0.00,VWS V13.01,2013-03-25 01:55:00,
2013-03-24 21:00:00,44.1,5.6,26.43,SE,136,8.7,8.7,20,0.00,,---,0.00,VWS V13.01,2013-03-25 02:00:00,
2013-03-24 21:05:00,43.7,5.3,26.43,SE,136,8.7,8.7,20,0.00,,---,0.00,VWS V13.01,2013-03-25 02:05:00,
2013-03-24 21:10:00,43.3,5.0,26.43,SE,136,8.7,8.7,20,0.00,,---,0.00,VWS V13.01,2013-03-25 02:10:00,
2013-03-24 21:15:00,43.3,5.0,26.43,SE,136,8.7,8.7,20,0.00,,---,0.00,VWS V13.01,2013-03-25 02:15:00,
2013-03-24 21:20:00,43.3,5.0,26.43,SE,136,8.7,8.7,20,0.00,,---,0.00,VWS V13.01,2013-03-25 02:20:00,
2013-03-24 21:26:00,43.0,4.7,26.43,SE,136,8.7,8.7,20,0.00,,---,0.00,VWS V13.01,2013-03-25 02:26:00,
2013-03-24 21:31:00,43.0,4.7,26.43,SE,136,8.7,8.7,20,0.00,,---,0.00,VWS V13.01,2013-03-25 02:31:00,
2013-03-24 21:36:00,42.4,5.3,26.43,SE,136,8.7,8.7,21,0.00,,---,0.00,VWS V13.01,2013-03-25 02:36:00,
2013-03-24 21:41:00,41.9,4.8,26.43,SE,136,8.7,8.7,21,0.00,,---,0.00,VWS V13.01,2013-03-25 02:41:00,
2013-03-24 21:45:00,41.9,4.8,26.43,SE,136,8.7,8.7,21,0.00,,---,0.00,VWS V13.01,2013-03-25 02:45:00,
2013-03-24 21:51:00,41.2,4.2,26.43,SE,136,8.7,8.7,21,0.00,,---,0.00,VWS V13.01,2013-03-25 02:51:00,
2013-03-24 21:56:00,40.5,3.6,26.43,SE,136,8.7,8.7,21,0.00,,---,0.00,VWS V13.01,2013-03-25 02:56:00,
2013-03-24 22:01:00,40.3,3.5,26.43,SE,136,8.7,8.7,21,0.00,,---,0.00,VWS V13.01,2013-03-25 03:01:00,
2013-03-24 22:06:00,40.3,3.5,26.43,SE,136,8.7,8.7,21,0.00,,---,0.00,VWS V13.01,2013-03-25 03:06:00,
2013-03-24 22:10:00,39.7,3.0,26.43,SE,136,8.7,8.7,21,0.00,,---,0.00,VWS V13.01,2013-03-25 03:10:00,
2013-03-24 22:15:00,39.6,2.9,26.43,SE,136,8.7,8.7,21,0.00,,---,0.00,VWS V13.01,2013-03-25 03:15:00,
2013-03-24 22:20:00,39.6,2.9,26.43,SE,136,8.7,8.7,21,0.00,,---,0.00,VWS V13.01,2013-03-25 03:20:00,
2013-03-24 22:26:00,39.4,2.7,26.43,SE,136,8.7,8.7,21,0.00,,---,0.00,VWS V13.01,2013-03-25 03:26:00,
2013-03-24 22:31:00,39.4,2.7,26.43,SE,136,8.7,8.7,21,0.00,,---,0.00,VWS V13.01,2013-03-25 03:31:00,
2013-03-24 22:36:00,38.1,1.6,26.43,SE,136,8.7,8.7,21,0.00,,---,0.00,VWS V13.01,2013-03-25 03:36:00,
2013-03-24 22:41:00,38.1,1.6,26.43,SE,136,8.7,8.7,21,0.00,,---,0.00,VWS V13.01,2013-03-25 03:41:00,
2013-03-24 22:46:00,38.1,1.6,26.43,SE,136,8.7,8.7,21,0.00,,---,0.00,VWS V13.01,2013-03-25 03:46:00,
2013-03-24 22:51:00,37.8,1.4,26.43,SE,136,8.7,8.7,21,0.00,,---,0.00,VWS V13.01,2013-03-25 03:51:00,
2013-03-24 22:56:00,37.8,1.4,26.46,SE,136,8.7,8.7,21,0.00,,---,0.00,VWS V13.01,2013-03-25 03:56:00,
2013-03-24 23:00:00,37.2,1.9,26.46,SE,136,8.7,8.7,22,0.00,,---,0.00,VWS V13.01,2013-03-25 04:00:00,
2013-03-24 23:05:00,37.0,1.7,26.46,SE,136,8.7,8.7,22,0.00,,---,0.00,VWS V13.01,2013-03-25 04:05:00,
2013-03-24 23:10:00,36.9,1.6,26.46,SE,136,8.7,8.7,22,0.00,,---,0.00,VWS V13.01,2013-03-25 04:10:00,
2013-03-24 23:15:00,36.9,1.6,26.46,SE,136,8.7,8.7,22,0.00,,---,0.00,VWS V13.01,2013-03-25 04:15:00,
2013-03-24 23:20:00,36.5,1.3,26.46,SE,136,8.7,8.7,22,0.00,,---,0.00,VWS V13.01,2013-03-25 04:20:00,
2013-03-24 23:25:00,36.0,0.8,26.46,SE,136,8.7,8.7,22,0.00,,---,0.00,VWS V13.01,2013-03-25 04:25:00,
2013-03-24 23:30:00,36.0,0.8,26.46,SE,136,8.7,8.7,22,0.00,,---,0.00,VWS V13.01,2013-03-25 04:30:00,
2013-03-24 23:35:00,36.0,0.8,26.46,SE,136,8.7,8.7,22,0.00,,---,0.00,VWS V13.01,2013-03-25 04:35:00,
2013-03-24 23:40:00,36.0,0.8,26.46,SE,136,8.7,8.7,22,0.00,,---,0.00,VWS V13.01,2013-03-25 04:40:00,
2013-03-24 23:45:00,35.1,0.1,26.46,SE,136,8.7,8.7,22,0.00,,---,0.00,VWS V13.01,2013-03-25 04:45:00,
2013-03-24 23:50:00,34.9,-0.1,26.46,SE,136,8.7,8.7,22,0.00,,---,0.00,VWS V13.01,2013-03-25 04:50:00,
2013-03-24 23:55:00,34.9,-0.1,26.43,SE,136,8.7,8.7,22,0.00,,---,0.00,VWS V13.01,2013-03-25 04:55:00,